Big Bear Station Historical Data
Daily Summary for July 25, 2017 Units:  English    Metric   Both
« Previous Day
Next Day »
Daily Weekly Monthly Yearly Custom
  High: Low: Average:
Temperature: 78.8 °F 55.8 °F 65.4 °F
Dew Point: 57.7 °F 50.7 °F 54.6 °F
Humidity: 86 % 47 % 69 %
Wind Speed: 3.7 mph 0.0 mph 1.2 mph
Wind Gust: -999.0 mph - -
Wind:- - West
Pressure: 30.30 in 23.56 in -
Precipitation: 0.00 in    
Historical Graphs
 
 
Tabular Data for July 25, 2017
Time Temperature Dew Point Pressure Wind Wind Speed Wind Gust Humidity Rainfall Rate (Hourly)
00:02 59.5 °F 54.0 °F 23.57 in Calm   -999.0 mph 82 % 0 in
00:17 59.0 °F 53.5 °F 23.57 in Calm   -999.0 mph 82 % 0 in
00:32 58.8 °F 53.3 °F 23.57 in Calm   -999.0 mph 82 % 0 in
00:47 59.4 °F 53.2 °F 23.57 in South 1.7 mph -999.0 mph 80 % 0 in
01:03 59.7 °F 52.8 °F 23.57 in South 2.2 mph -999.0 mph 78 % 0 in
01:18 59.2 °F 52.7 °F 23.57 in South 1.1 mph -999.0 mph 79 % 0 in
01:34 58.5 °F 52.7 °F 23.56 in Calm   -999.0 mph 81 % 0 in
01:49 58.1 °F 52.6 °F 23.56 in Calm   -999.0 mph 82 % 0 in
02:04 57.4 °F 52.6 °F 23.56 in Calm   -999.0 mph 84 % 0 in
02:19 57.0 °F 52.2 °F 23.56 in Calm   -999.0 mph 84 % 0 in
02:35 56.7 °F 52.2 °F 23.56 in Calm   -999.0 mph 85 % 0 in
02:50 56.5 °F 52.0 °F 23.56 in Calm   -999.0 mph 85 % 0 in
03:05 56.3 °F 51.8 °F 23.56 in Calm   -999.0 mph 85 % 0 in
03:20 56.5 °F 52.0 °F 23.57 in Calm   -999.0 mph 85 % 0 in
03:35 56.1 °F 51.7 °F 23.57 in Calm   -999.0 mph 85 % 0 in
03:51 56.1 °F 52.0 °F 23.56 in Calm   -999.0 mph 86 % 0 in
04:06 56.1 °F 51.7 °F 23.57 in Calm   -999.0 mph 85 % 0 in
04:21 55.8 °F 51.0 °F 23.57 in Calm   -999.0 mph 84 % 0 in
04:36 55.8 °F 51.0 °F 23.57 in Calm   -999.0 mph 84 % 0 in
04:51 55.8 °F 51.0 °F 23.57 in Calm   -999.0 mph 84 % 0 in
05:07 56.3 °F 51.5 °F 23.57 in Calm   -999.0 mph 84 % 0 in
05:22 56.3 °F 51.5 °F 23.57 in Calm   -999.0 mph 84 % 0 in
05:37 56.1 °F 51.3 °F 23.57 in Calm   -999.0 mph 84 % 0 in
05:52 55.9 °F 50.8 °F 23.58 in Calm   -999.0 mph 83 % 0 in
06:07 55.8 °F 50.7 °F 23.59 in Calm   -999.0 mph 83 % 0 in
06:23 55.9 °F 50.8 °F 23.59 in Calm   -999.0 mph 83 % 0 in
06:38 56.5 °F 51.7 °F 23.58 in Calm   -999.0 mph 84 % 0 in
06:53 57.0 °F 52.2 °F 23.59 in Calm   -999.0 mph 84 % 0 in
07:08 57.9 °F 53.1 °F 23.59 in Calm   -999.0 mph 84 % 0 in
07:24 59.2 °F 54.0 °F 23.59 in Calm   -999.0 mph 83 % 0 in
07:39 59.9 °F 54.1 °F 23.59 in Calm   -999.0 mph 81 % 0 in
07:54 61.2 °F 55.0 °F 23.59 in Calm   -999.0 mph 80 % 0 in
08:09 63.1 °F 54.7 °F 23.59 in Calm   -999.0 mph 74 % 0 in
08:24 64.8 °F 55.6 °F 23.60 in West 1.7 mph -999.0 mph 72 % 0 in
08:40 65.8 °F 54.9 °F 23.60 in NNW 3.2 mph -999.0 mph 68 % 0 in
08:55 66.7 °F 55.4 °F 23.60 in WNW 3.2 mph -999.0 mph 67 % 0 in
09:11 67.6 °F 55.4 °F 23.60 in NNE 3.7 mph -999.0 mph 65 % 0 in
09:26 67.6 °F 55.4 °F 23.60 in WNW 1.7 mph -999.0 mph 65 % 0 in
09:41 68.9 °F 55.3 °F 23.60 in West 1.1 mph -999.0 mph 62 % 0 in
09:56 69.8 °F 56.6 °F 23.61 in NNW 3.2 mph -999.0 mph 63 % 0 in
10:11 69.8 °F 56.2 °F 23.61 in NNW 2.2 mph -999.0 mph 62 % 0 in
10:27 70.0 °F 55.9 °F 23.61 in WNW 2.7 mph -999.0 mph 61 % 0 in
10:42 68.9 °F 55.8 °F 23.62 in NE 2.7 mph -999.0 mph 63 % 0 in
10:57 70.3 °F 56.7 °F 23.62 in NW 3.7 mph -999.0 mph 62 % 0 in
11:12 70.3 °F 56.2 °F 23.62 in NW 3.2 mph -999.0 mph 61 % 0 in
11:27 71.4 °F 56.3 °F 23.62 in Calm   -999.0 mph 59 % 0 in
11:43 71.8 °F 56.7 °F 23.62 in NW 2.7 mph -999.0 mph 59 % 0 in
11:58 72.9 °F 56.8 °F 23.62 in WNW 2.2 mph -999.0 mph 57 % 0 in
12:13 72.9 °F 56.3 °F 23.62 in Calm   -999.0 mph 56 % 0 in
12:29 72.9 °F 56.3 °F 23.62 in North 2.7 mph -999.0 mph 56 % 0 in
12:44 72.7 °F 56.1 °F 23.62 in Calm   -999.0 mph 56 % 0 in
12:59 73.0 °F 56.4 °F 23.62 in NW 2.7 mph -999.0 mph 56 % 0 in
13:14 72.9 °F 56.8 °F 23.62 in NNW 1.7 mph -999.0 mph 57 % 0 in
13:29 73.6 °F 55.9 °F 23.62 in Calm   -999.0 mph 54 % 0 in
13:45 73.9 °F 57.2 °F 23.62 in NW 2.2 mph -999.0 mph 56 % 0 in
14:00 75.4 °F 56.6 °F 23.62 in NW 2.2 mph -999.0 mph 52 % 0 in
14:15 74.3 °F 56.6 °F 23.62 in NNW 2.2 mph -999.0 mph 54 % 0 in
14:30 72.9 °F 57.3 °F 23.62 in Calm   -999.0 mph 58 % 0 in
14:45 72.7 °F 57.1 °F 23.62 in Calm   -999.0 mph 58 % 0 in
15:01 72.5 °F 57.4 °F 23.62 in NNW 2.2 mph -999.0 mph 59 % 0 in
15:16 72.0 °F 56.9 °F 23.62 in NW 2.2 mph -999.0 mph 59 % 0 in
15:31 71.8 °F 57.2 °F 23.62 in NW 3.2 mph -999.0 mph 60 % 0 in
15:47 71.2 °F 57.1 °F 23.62 in NW 2.2 mph -999.0 mph 61 % 0 in
16:02 71.4 °F 56.3 °F 23.61 in West 1.1 mph -999.0 mph 59 % 0 in
16:17 72.7 °F 56.1 °F 23.61 in NW 2.2 mph -999.0 mph 56 % 0 in
16:32 73.8 °F 57.6 °F 23.61 in NNW 2.7 mph -999.0 mph 57 % 0 in
16:47 74.3 °F 57.1 °F 23.61 in WNW 2.2 mph -999.0 mph 55 % 0 in
17:03 76.8 °F 57.3 °F 23.61 in NNE 2.2 mph -999.0 mph 51 % 0 in
17:18 78.8 °F 56.9 °F 23.61 in West 3.2 mph -999.0 mph 47 % 0 in
17:33 78.4 °F 56.5 °F 23.61 in NNW 3.7 mph -999.0 mph 47 % 0 in
17:49 77.0 °F 56.9 °F 23.61 in WNW 2.7 mph -999.0 mph 50 % 0 in
18:04 76.6 °F 57.1 °F 23.61 in NW 2.2 mph -999.0 mph 51 % 0 in
18:19 76.6 °F 57.7 °F 23.61 in NW 3.2 mph -999.0 mph 52 % 0 in
18:34 75.0 °F 57.2 °F 23.61 in WNW 2.7 mph -999.0 mph 54 % 0 in
18:49 74.7 °F 57.5 °F 23.61 in West 3.2 mph -999.0 mph 55 % 0 in
19:05 73.6 °F 56.9 °F 30.27 in SW 1.7 mph -999.0 mph 56 % 0 in
19:20 70.5 °F 56.4 °F 30.27 in West 1.1 mph -999.0 mph 61 % 0 in
19:35 68.4 °F 55.7 °F 30.27 in South 2.2 mph -999.0 mph 64 % 0 in
19:51 67.3 °F 55.1 °F 30.27 in Calm   -999.0 mph 65 % 0 in
20:06 66.2 °F 54.5 °F 30.27 in Calm   -999.0 mph 66 % 0 in
20:21 65.3 °F 54.1 °F 30.27 in NE 2.7 mph -999.0 mph 67 % 0 in
20:36 64.8 °F 54.0 °F 30.27 in NW 2.2 mph -999.0 mph 68 % 0 in
20:51 64.4 °F 54.0 °F 30.28 in Calm   -999.0 mph 69 % 0 in
21:07 64.0 °F 54.0 °F 30.28 in Calm   -999.0 mph 70 % 0 in
21:22 63.3 °F 53.7 °F 30.28 in Calm   -999.0 mph 71 % 0 in
21:37 63.3 °F 53.7 °F 30.29 in Calm   -999.0 mph 71 % 0 in
21:52 62.8 °F 54.0 °F 30.29 in Calm   -999.0 mph 73 % 0 in
22:07 62.2 °F 53.8 °F 30.30 in Calm   -999.0 mph 74 % 0 in
22:23 61.9 °F 53.9 °F 30.30 in South 2.2 mph -999.0 mph 75 % 0 in
22:38 61.3 °F 53.7 °F 30.30 in Calm   -999.0 mph 76 % 0 in
22:53 61.3 °F 54.0 °F 30.30 in SSE 1.1 mph -999.0 mph 77 % 0 in
23:09 61.0 °F 54.1 °F 30.30 in Calm   -999.0 mph 78 % 0 in
23:24 60.4 °F 53.9 °F 30.30 in Calm   -999.0 mph 79 % 0 in
23:39 59.7 °F 53.5 °F 30.30 in Calm   -999.0 mph 80 % 0 in
23:54 59.2 °F 53.4 °F 30.30 in Calm   -999.0 mph 81 % 0 in
Big Bear CA Weather
Compliments of Weather Underground - 1.5 mb